createdAt,value
2022-12-19T00:00:37.991Z,-2.89
2022-12-19T00:03:08.008Z,-2.90
2022-12-19T00:05:38.720Z,-2.90
2022-12-19T00:08:15.438Z,-2.94
2022-12-19T00:10:56.319Z,-2.95
2022-12-19T00:13:25.124Z,-2.94
2022-12-19T00:15:53.922Z,-2.94
2022-12-19T00:18:23.828Z,-3.00
2022-12-19T00:20:56.967Z,-2.93
2022-12-19T00:23:25.597Z,-2.96
2022-12-19T00:25:54.114Z,-2.93
2022-12-19T00:28:23.891Z,-2.92
2022-12-19T00:30:53.396Z,-2.87
2022-12-19T00:33:26.492Z,-2.89
2022-12-19T00:35:58.881Z,-2.86
2022-12-19T00:38:28.369Z,-2.83
2022-12-19T00:40:56.963Z,-2.83
2022-12-19T00:43:27.492Z,-2.88
2022-12-19T00:45:56.114Z,-2.84
2022-12-19T00:48:26.992Z,-2.88
2022-12-19T00:51:00.541Z,-2.90
2022-12-19T00:53:29.768Z,-2.85
2022-12-19T00:56:02.838Z,-2.84
2022-12-19T00:58:35.315Z,-2.78
2022-12-19T01:01:07.544Z,-2.78
2022-12-19T01:03:38.504Z,-2.78
2022-12-19T01:06:07.831Z,-2.77
2022-12-19T01:08:36.855Z,-2.78
2022-12-19T01:11:06.324Z,-2.76
2022-12-19T01:13:35.702Z,-2.76
2022-12-19T01:16:12.915Z,-2.78
2022-12-19T01:18:42.832Z,-2.84
2022-12-19T01:21:11.924Z,-2.89
2022-12-19T01:23:40.421Z,-2.95
2022-12-19T01:26:09.845Z,-2.97
2022-12-19T01:28:38.424Z,-2.92
2022-12-19T01:31:07.748Z,-2.92
2022-12-19T01:33:37.855Z,-2.87
2022-12-19T01:36:09.731Z,-2.79
2022-12-19T01:38:38.640Z,-2.75
2022-12-19T01:41:07.104Z,-2.71
2022-12-19T01:43:57.926Z,-2.72
2022-12-19T01:46:31.495Z,-2.75
2022-12-19T01:49:01.960Z,-2.73
2022-12-19T01:51:40.843Z,-2.70
2022-12-19T01:54:12.806Z,-2.68
2022-12-19T01:56:46.129Z,-2.64
2022-12-19T01:59:20.220Z,-2.62
2022-12-19T02:01:51.589Z,-2.60
2022-12-19T02:04:25.542Z,-2.62
2022-12-19T02:06:59.306Z,-2.59
2022-12-19T02:09:33.114Z,-2.58
2022-12-19T02:12:02.175Z,-2.60
2022-12-19T02:14:34.446Z,-2.58
2022-12-19T02:17:19.456Z,-2.57
2022-12-19T02:20:09.889Z,-2.51
2022-12-19T02:22:52.919Z,-2.44
2022-12-19T02:25:49.542Z,-2.53
2022-12-19T02:28:45.387Z,-2.41
2022-12-19T02:31:23.983Z,-2.51
2022-12-19T02:33:58.044Z,-2.51
2022-12-19T02:36:38.915Z,-2.62
2022-12-19T02:39:16.357Z,-2.58
2022-12-19T02:41:48.851Z,-2.52
2022-12-19T02:44:24.382Z,-2.42
2022-12-19T02:46:55.124Z,-2.41
2022-12-19T02:49:31.127Z,-2.47
2022-12-19T02:52:10.261Z,-2.47
2022-12-19T02:54:42.353Z,-2.41
2022-12-19T02:57:25.074Z,-2.43
2022-12-19T03:00:04.730Z,-2.41
2022-12-19T03:02:56.110Z,-2.45
2022-12-19T03:05:37.302Z,-2.51
2022-12-19T03:08:09.384Z,-2.50
2022-12-19T03:10:45.198Z,-2.44
2022-12-19T03:13:20.357Z,-2.42
2022-12-19T03:15:54.409Z,-2.41
2022-12-19T03:18:25.052Z,-2.45
2022-12-19T03:21:05.986Z,-2.39
2022-12-19T03:23:35.339Z,-2.42
2022-12-19T03:26:07.348Z,-2.37
2022-12-19T03:28:41.374Z,-2.36
2022-12-19T03:31:11.949Z,-2.29
2022-12-19T03:33:43.093Z,-2.29
2022-12-19T03:36:14.795Z,-2.26
2022-12-19T03:38:46.591Z,-2.17
2022-12-19T03:41:38.477Z,-2.09
2022-12-19T03:44:07.669Z,-2.04
2022-12-19T03:46:40.104Z,-2.10
2022-12-19T03:49:10.337Z,-2.06
2022-12-19T03:51:46.268Z,-2.05
2022-12-19T03:54:19.092Z,-2.02
2022-12-19T03:56:52.726Z,-1.93
2022-12-19T03:59:32.239Z,-1.87
2022-12-19T04:02:02.582Z,-1.84
2022-12-19T04:04:35.857Z,-1.83
2022-12-19T04:07:05.976Z,-1.85
2022-12-19T04:09:35.905Z,-1.79
2022-12-19T04:12:08.049Z,-1.73
2022-12-19T04:14:39.572Z,-1.77
2022-12-19T04:17:16.796Z,-1.71
2022-12-19T04:19:51.415Z,-1.64
2022-12-19T04:22:26.579Z,-1.63
2022-12-19T04:24:57.001Z,-1.58
2022-12-19T04:27:25.435Z,-1.49
2022-12-19T04:29:57.308Z,-1.51
2022-12-19T04:32:28.051Z,-1.44
2022-12-19T04:34:58.153Z,-1.43
2022-12-19T04:37:26.821Z,-1.45
2022-12-19T04:39:55.402Z,-1.40
2022-12-19T04:42:23.921Z,-1.44
2022-12-19T04:44:52.685Z,-1.40
2022-12-19T04:47:21.309Z,-1.36
2022-12-19T04:49:49.931Z,-1.38
2022-12-19T04:52:19.806Z,-1.32
2022-12-19T04:54:48.609Z,-1.36
2022-12-19T04:57:17.118Z,-1.35
2022-12-19T04:59:45.633Z,-1.29
2022-12-19T05:02:14.300Z,-1.26
2022-12-19T05:04:42.910Z,-1.25
2022-12-19T05:07:11.486Z,-1.20
2022-12-19T05:09:41.744Z,-1.16
2022-12-19T05:12:10.827Z,-1.13
2022-12-19T05:14:39.361Z,-1.06
2022-12-19T05:17:07.932Z,-1.04
2022-12-19T05:19:36.450Z,-1.02
2022-12-19T05:22:05.122Z,-0.98
2022-12-19T05:24:33.720Z,-0.99
2022-12-19T05:27:03.599Z,-0.92
2022-12-19T05:29:32.081Z,-0.93
2022-12-19T05:32:00.647Z,-0.87
2022-12-19T05:34:30.054Z,-0.86
2022-12-19T05:36:58.945Z,-0.82
2022-12-19T05:39:28.827Z,-0.72
2022-12-19T05:41:57.725Z,-0.71
2022-12-19T05:44:28.488Z,-0.72
2022-12-19T05:46:57.053Z,-0.70
2022-12-19T05:49:25.724Z,-0.74
2022-12-19T05:51:54.625Z,-0.69
2022-12-19T05:54:23.296Z,-0.69
2022-12-19T05:56:51.986Z,-0.62
2022-12-19T05:59:20.464Z,-0.55
2022-12-19T06:01:50.390Z,-0.53
2022-12-19T06:04:19.037Z,-0.52
2022-12-19T06:06:47.590Z,-0.48
2022-12-19T06:09:16.127Z,-0.49
2022-12-19T06:11:44.629Z,-0.46
2022-12-19T06:14:13.161Z,-0.39
2022-12-19T06:16:41.767Z,-0.37
2022-12-19T06:19:11.692Z,-0.32
2022-12-19T06:21:47.998Z,-0.32
2022-12-19T06:24:17.778Z,-0.30
2022-12-19T06:26:46.360Z,-0.33
2022-12-19T06:29:14.921Z,-0.21
2022-12-19T06:31:43.538Z,-0.19
2022-12-19T06:34:27.283Z,-0.16
2022-12-19T06:37:07.809Z,-0.11
2022-12-19T06:39:36.783Z,-0.06
2022-12-19T06:42:22.932Z,-0.04
2022-12-19T06:44:52.007Z,-0.04
2022-12-19T06:47:21.855Z,0.04
2022-12-19T06:49:51.809Z,0.10
2022-12-19T06:52:20.492Z,0.07
2022-12-19T06:54:49.013Z,0.06
2022-12-19T06:57:17.523Z,0.14
2022-12-19T06:59:46.066Z,0.11
2022-12-19T07:02:25.817Z,0.14
2022-12-19T07:05:02.527Z,0.21
2022-12-19T07:07:31.102Z,0.15
2022-12-19T07:09:59.820Z,0.21
2022-12-19T07:12:28.438Z,0.25
2022-12-19T07:14:57.012Z,0.27
2022-12-19T07:17:27.021Z,0.31
2022-12-19T07:19:58.683Z,0.34
2022-12-19T07:22:32.040Z,0.39
2022-12-19T07:25:00.971Z,0.47
2022-12-19T07:27:35.354Z,0.52
2022-12-19T07:30:05.624Z,0.58
2022-12-19T07:32:34.325Z,0.60
2022-12-19T07:35:04.561Z,0.66
2022-12-19T07:37:33.122Z,0.73
2022-12-19T07:40:01.794Z,0.77
2022-12-19T07:42:32.628Z,0.81
2022-12-19T07:45:02.330Z,0.85
2022-12-19T07:47:30.774Z,0.86
2022-12-19T07:49:59.258Z,0.96
2022-12-19T07:52:29.181Z,0.98
2022-12-19T07:54:57.611Z,1.05
2022-12-19T07:57:26.083Z,1.03
2022-12-19T07:59:54.546Z,1.09
2022-12-19T08:02:23.158Z,1.10
2022-12-19T08:04:51.862Z,1.10
2022-12-19T08:07:20.326Z,1.18
2022-12-19T08:09:50.350Z,1.18
2022-12-19T08:12:18.900Z,1.24
2022-12-19T08:14:47.385Z,1.24
2022-12-19T08:17:20.725Z,1.26
2022-12-19T08:19:49.372Z,1.28
2022-12-19T08:22:17.899Z,1.31
2022-12-19T08:24:46.549Z,1.37
2022-12-19T08:27:18.801Z,1.38
2022-12-19T08:29:47.459Z,1.38
2022-12-19T08:32:20.750Z,1.47
2022-12-19T08:34:50.609Z,1.41
2022-12-19T08:37:19.215Z,1.42
2022-12-19T08:39:47.729Z,1.45
2022-12-19T08:42:18.631Z,1.44
2022-12-19T08:44:47.101Z,1.41
2022-12-19T08:47:15.634Z,1.43
2022-12-19T08:49:44.502Z,1.49
2022-12-19T08:52:12.974Z,1.53
2022-12-19T08:54:41.558Z,1.55
2022-12-19T08:57:10.609Z,1.56
2022-12-19T08:59:40.427Z,1.56
2022-12-19T09:02:10.845Z,1.58
2022-12-19T09:05:59.315Z,1.62
2022-12-19T09:07:28.982Z,1.77
2022-12-19T09:09:57.442Z,1.75
2022-12-19T09:12:25.874Z,1.76
2022-12-19T09:14:55.780Z,1.80
2022-12-19T09:17:24.251Z,1.80
2022-12-19T09:19:53.271Z,1.81
2022-12-19T09:22:22.018Z,1.88
2022-12-19T09:24:58.033Z,1.89
2022-12-19T09:27:27.121Z,1.86
2022-12-19T09:29:56.961Z,1.94
2022-12-19T09:32:25.471Z,1.99
2022-12-19T09:34:53.946Z,2.07
2022-12-19T09:37:22.574Z,2.11
2022-12-19T09:39:51.338Z,2.18
2022-12-19T09:42:48.014Z,2.27
2022-12-19T09:45:32.629Z,2.27
2022-12-19T09:48:02.686Z,2.31
2022-12-19T09:50:41.974Z,2.37
2022-12-19T09:53:20.895Z,2.42
2022-12-19T09:55:51.338Z,2.47
2022-12-19T09:58:28.127Z,2.51
2022-12-19T10:01:00.595Z,2.57
2022-12-19T10:03:38.765Z,2.72
2022-12-19T10:07:15.825Z,2.78
2022-12-19T10:11:10.129Z,3.02
2022-12-19T10:12:42.502Z,3.22
2022-12-19T10:15:20.155Z,3.47
2022-12-19T10:18:05.578Z,3.55
2022-12-19T10:20:38.457Z,3.69
2022-12-19T10:23:21.926Z,3.72
2022-12-19T10:26:01.222Z,3.80
2022-12-19T10:28:44.097Z,3.87
2022-12-19T10:31:22.207Z,3.97
2022-12-19T10:33:58.898Z,3.93
2022-12-19T10:37:03.949Z,3.85
2022-12-19T10:39:28.290Z,3.68
2022-12-19T10:42:00.339Z,3.67
2022-12-19T10:44:34.800Z,3.59
2022-12-19T10:47:04.408Z,3.68
2022-12-19T10:49:34.650Z,3.66
2022-12-19T10:52:05.744Z,3.77
2022-12-19T10:54:43.863Z,3.79
2022-12-19T10:57:23.990Z,3.80
2022-12-19T10:59:57.859Z,3.74
2022-12-19T11:02:42.324Z,3.76
2022-12-19T11:05:27.091Z,3.87
2022-12-19T11:08:05.032Z,3.89
2022-12-19T11:12:03.613Z,3.82
2022-12-19T11:17:20.660Z,3.99
2022-12-19T11:20:30.718Z,3.96
2022-12-19T11:29:15.570Z,3.92
2022-12-19T11:29:43.196Z,4.07
2022-12-19T11:30:07.045Z,3.96
2022-12-19T11:30:36.678Z,4.13
2022-12-19T11:34:03.815Z,4.41
2022-12-19T11:36:38.724Z,4.42
2022-12-19T11:39:18.982Z,4.36
2022-12-19T11:41:54.191Z,4.34
2022-12-19T11:44:30.515Z,4.49
2022-12-19T11:47:10.097Z,4.58
2022-12-19T11:49:44.745Z,4.66
2022-12-19T11:55:25.070Z,4.83
2022-12-19T11:57:55.641Z,4.78
2022-12-19T12:00:25.858Z,4.67
2022-12-19T12:03:22.727Z,4.53
2022-12-19T12:05:55.383Z,4.50
2022-12-19T12:11:05.282Z,4.28
2022-12-19T12:20:16.841Z,4.35
2022-12-19T12:25:26.755Z,4.33
2022-12-19T12:31:01.792Z,4.33
2022-12-19T12:31:21.921Z,4.31
2022-12-19T12:31:39.472Z,4.26
2022-12-19T12:31:43.768Z,4.34
2022-12-19T12:31:53.910Z,4.23
2022-12-19T12:35:56.311Z,4.21
2022-12-19T12:38:42.905Z,4.40
2022-12-19T12:41:43.351Z,4.44
2022-12-19T12:44:13.425Z,4.66
2022-12-19T12:46:47.701Z,4.74
2022-12-19T12:49:32.720Z,4.68
2022-12-19T12:52:04.103Z,4.59
2022-12-19T12:54:36.480Z,4.55
2022-12-19T12:57:05.316Z,4.49
2022-12-19T12:59:33.993Z,4.49
2022-12-19T13:02:17.578Z,4.39
2022-12-19T13:04:57.367Z,4.43
2022-12-19T13:07:30.756Z,4.31
2022-12-19T13:10:19.738Z,4.26
2022-12-19T13:13:14.161Z,4.21
2022-12-19T13:15:44.825Z,4.11
2022-12-19T13:18:32.457Z,4.06
2022-12-19T13:21:02.974Z,4.08
2022-12-19T13:24:16.340Z,4.05
2022-12-19T13:26:49.530Z,4.08
2022-12-19T13:29:54.445Z,4.17
2022-12-19T13:32:23.956Z,4.31
2022-12-19T13:35:04.790Z,4.44
2022-12-19T13:39:59.980Z,4.46
2022-12-19T13:40:54.932Z,4.55
2022-12-19T13:43:45.284Z,4.50
2022-12-19T13:46:26.462Z,4.37
2022-12-19T13:48:58.531Z,4.29
2022-12-19T13:51:28.385Z,4.31
2022-12-19T13:53:59.772Z,4.29
2022-12-19T13:56:31.921Z,4.30
2022-12-19T13:59:03.588Z,4.26
2022-12-19T14:01:34.885Z,4.27
2022-12-19T14:04:08.190Z,4.26
2022-12-19T14:06:43.778Z,4.22
2022-12-19T14:11:26.549Z,4.17
2022-12-19T14:13:43.265Z,4.16
2022-12-19T14:15:32.449Z,4.14
2022-12-19T14:18:42.388Z,4.16
2022-12-19T14:22:07.141Z,4.19
2022-12-19T14:23:44.059Z,4.13
2022-12-19T14:28:24.225Z,4.14
2022-12-19T14:29:13.432Z,4.10
2022-12-19T14:31:58.471Z,4.04
2022-12-19T14:35:03.903Z,4.11
2022-12-19T14:37:31.665Z,4.08
2022-12-19T14:40:26.781Z,4.09
2022-12-19T14:44:00.339Z,4.07
2022-12-19T14:52:34.173Z,4.04
2022-12-19T14:54:06.399Z,4.04
2022-12-19T14:54:40.197Z,3.99
2022-12-19T14:56:09.403Z,4.05
2022-12-19T14:58:55.727Z,4.01
2022-12-19T15:01:24.441Z,3.92
2022-12-19T15:04:48.432Z,3.91
2022-12-19T15:07:09.792Z,3.86
2022-12-19T15:10:59.069Z,3.81
2022-12-19T15:14:53.738Z,3.79
2022-12-19T15:15:45.634Z,3.64
2022-12-19T15:18:40.027Z,3.65
2022-12-19T15:21:11.039Z,3.59
2022-12-19T15:23:39.964Z,3.65
2022-12-19T15:26:14.070Z,3.58
2022-12-19T15:28:47.824Z,3.48
2022-12-19T15:31:29.953Z,3.43
2022-12-19T15:34:32.814Z,3.35
2022-12-19T15:36:48.102Z,3.28
2022-12-19T15:39:17.012Z,3.24
2022-12-19T15:41:48.037Z,3.22
2022-12-19T15:44:21.542Z,3.20
2022-12-19T15:46:50.319Z,3.14
2022-12-19T15:49:20.391Z,3.16
2022-12-19T15:51:50.092Z,3.13
2022-12-19T15:54:47.781Z,3.07
2022-12-19T15:57:20.631Z,2.94
2022-12-19T15:59:50.874Z,2.86
2022-12-19T16:02:23.610Z,2.77
2022-12-19T16:04:59.840Z,2.68
2022-12-19T16:07:31.979Z,2.61
2022-12-19T16:10:00.493Z,2.64
2022-12-19T16:12:40.281Z,2.59
2022-12-19T16:15:16.532Z,2.61
2022-12-19T16:17:45.115Z,2.71
2022-12-19T16:20:19.581Z,2.77
2022-12-19T16:22:48.547Z,2.91
2022-12-19T16:25:17.561Z,2.87
2022-12-19T16:27:53.184Z,2.88
2022-12-19T16:30:26.547Z,2.89
2022-12-19T16:32:55.443Z,2.88
2022-12-19T16:35:55.077Z,2.87
2022-12-19T16:38:14.478Z,2.85
2022-12-19T16:40:43.963Z,2.77
2022-12-19T16:43:16.911Z,2.85
2022-12-19T16:45:47.364Z,2.80
2022-12-19T16:48:20.165Z,2.82
2022-12-19T16:50:49.682Z,2.79
2022-12-19T16:53:19.006Z,2.95
2022-12-19T16:55:49.581Z,2.95
2022-12-19T16:58:21.914Z,2.98
2022-12-19T17:00:54.900Z,2.94
2022-12-19T17:03:30.561Z,3.03
2022-12-19T17:05:59.310Z,3.07
2022-12-19T17:08:27.920Z,3.01
2022-12-19T17:10:56.489Z,3.07
2022-12-19T17:13:26.330Z,3.02
2022-12-19T17:15:57.433Z,3.10
2022-12-19T17:18:29.201Z,3.11
2022-12-19T17:20:57.752Z,3.11
2022-12-19T17:23:29.013Z,3.05
2022-12-19T17:25:59.394Z,3.04
2022-12-19T17:28:28.116Z,3.01
2022-12-19T17:31:00.225Z,2.96
2022-12-19T17:33:34.412Z,2.93
2022-12-19T17:36:04.312Z,2.91
2022-12-19T17:38:33.022Z,2.96
2022-12-19T17:41:01.728Z,2.98
2022-12-19T17:43:30.622Z,2.96
2022-12-19T17:46:00.569Z,2.98
2022-12-19T17:48:31.747Z,2.99
2022-12-19T17:51:01.131Z,2.98
2022-12-19T17:53:29.745Z,3.10
2022-12-19T17:55:58.304Z,3.10
2022-12-19T17:58:26.925Z,3.04
2022-12-19T18:00:55.572Z,3.01
2022-12-19T18:03:27.103Z,2.95
2022-12-19T18:05:57.089Z,2.95
2022-12-19T18:08:28.290Z,3.01
2022-12-19T18:11:00.635Z,2.98
2022-12-19T18:13:30.504Z,3.01
2022-12-19T18:16:01.354Z,2.94
2022-12-19T18:18:35.071Z,2.90
2022-12-19T18:21:04.644Z,2.86
2022-12-19T18:23:34.215Z,2.91
2022-12-19T18:26:03.119Z,3.01
2022-12-19T18:28:31.799Z,3.10
2022-12-19T18:31:02.903Z,3.16
2022-12-19T18:33:38.839Z,3.08
2022-12-19T18:36:08.896Z,3.03
2022-12-19T18:38:37.364Z,2.98
2022-12-19T18:41:06.173Z,2.96
2022-12-19T18:43:35.130Z,2.90
2022-12-19T18:46:03.733Z,2.84
2022-12-19T18:48:36.890Z,2.83
2022-12-19T18:51:06.824Z,2.76
2022-12-19T18:53:36.348Z,2.75
2022-12-19T18:56:06.492Z,2.76
2022-12-19T18:58:36.440Z,2.75
2022-12-19T19:01:07.283Z,2.78
2022-12-19T19:03:40.351Z,2.78
2022-12-19T19:06:17.918Z,2.84
2022-12-19T19:08:47.010Z,2.79
2022-12-19T19:11:27.705Z,2.87
2022-12-19T19:13:56.641Z,2.87
2022-12-19T19:16:27.318Z,2.87
2022-12-19T19:18:58.226Z,2.88
2022-12-19T19:21:29.751Z,2.94
2022-12-19T19:24:01.536Z,2.89
2022-12-19T19:26:30.351Z,2.89
2022-12-19T19:29:00.170Z,2.99
2022-12-19T19:31:34.333Z,2.97
2022-12-19T19:34:10.289Z,2.99
2022-12-19T19:36:43.024Z,3.00
2022-12-19T19:39:13.889Z,2.97
2022-12-19T19:41:42.632Z,2.95
2022-12-19T19:44:11.583Z,2.93
2022-12-19T19:46:40.213Z,2.89
2022-12-19T19:49:10.411Z,2.91
2022-12-19T19:51:39.342Z,2.95
2022-12-19T19:54:10.076Z,2.93
2022-12-19T19:56:38.612Z,2.92
2022-12-19T19:59:10.384Z,2.96
2022-12-19T20:01:38.994Z,2.91
2022-12-19T20:04:07.752Z,2.90
2022-12-19T20:06:37.669Z,2.85
2022-12-19T20:09:06.492Z,2.79
2022-12-19T20:11:35.102Z,2.77
2022-12-19T20:14:04.573Z,2.74
2022-12-19T20:16:33.600Z,2.74
2022-12-19T20:19:02.155Z,2.78
2022-12-19T20:21:30.764Z,2.78
2022-12-19T20:24:00.701Z,2.79
2022-12-19T20:26:29.449Z,2.68
2022-12-19T20:28:58.036Z,2.69
2022-12-19T20:31:26.648Z,2.71
2022-12-19T20:33:56.341Z,2.69
2022-12-19T20:36:25.334Z,2.62
2022-12-19T20:38:53.896Z,2.65
2022-12-19T20:41:24.050Z,2.65
2022-12-19T20:43:53.480Z,2.61
2022-12-19T20:46:23.317Z,2.60
2022-12-19T20:48:52.757Z,2.60
2022-12-19T20:51:22.959Z,2.55
2022-12-19T20:53:53.487Z,2.53
2022-12-19T20:56:25.759Z,2.49
2022-12-19T20:58:54.543Z,2.47
2022-12-19T21:01:25.200Z,2.45
2022-12-19T21:03:54.124Z,2.43
2022-12-19T21:06:25.282Z,2.44
2022-12-19T21:08:54.883Z,2.41
2022-12-19T21:11:26.516Z,2.49
2022-12-19T21:13:55.272Z,2.49
2022-12-19T21:16:24.563Z,2.46
2022-12-19T21:18:53.156Z,2.49
2022-12-19T21:21:23.952Z,2.46
2022-12-19T21:23:53.592Z,2.40
2022-12-19T21:26:25.605Z,2.37
2022-12-19T21:28:54.666Z,2.31
2022-12-19T21:31:26.086Z,2.31
2022-12-19T21:33:55.184Z,2.25
2022-12-19T21:36:25.146Z,2.22
2022-12-19T21:38:56.486Z,2.21
2022-12-19T21:41:26.884Z,2.20
2022-12-19T21:43:57.028Z,2.14
2022-12-19T21:46:27.520Z,2.11
2022-12-19T21:48:57.432Z,2.13
2022-12-19T21:51:28.457Z,2.13
2022-12-19T21:54:00.383Z,2.09
2022-12-19T21:56:32.360Z,2.07
2022-12-19T21:59:03.100Z,1.98
2022-12-19T22:01:33.101Z,1.85
2022-12-19T22:04:02.963Z,1.81
2022-12-19T22:06:34.278Z,1.72
2022-12-19T22:09:04.777Z,1.64
2022-12-19T22:11:36.419Z,1.59
2022-12-19T22:14:05.933Z,1.51
2022-12-19T22:16:35.280Z,1.50
2022-12-19T22:19:04.646Z,1.45
2022-12-19T22:21:33.681Z,1.45
2022-12-19T22:24:03.684Z,1.42
2022-12-19T22:26:35.119Z,1.37
2022-12-19T22:29:08.596Z,1.38
2022-12-19T22:31:38.083Z,1.36
2022-12-19T22:34:09.055Z,1.38
2022-12-19T22:36:39.825Z,1.38
2022-12-19T22:39:10.379Z,1.38
2022-12-19T22:41:40.775Z,1.39
2022-12-19T22:44:14.087Z,1.35
2022-12-19T22:46:42.672Z,1.33
2022-12-19T22:49:13.793Z,1.33
2022-12-19T22:51:43.008Z,1.34
2022-12-19T22:54:12.030Z,1.43
2022-12-19T22:56:42.569Z,1.52
2022-12-19T22:59:12.867Z,1.59
2022-12-19T23:01:42.676Z,1.62
2022-12-19T23:04:14.258Z,1.66
2022-12-19T23:06:43.409Z,1.60
2022-12-19T23:09:16.141Z,1.53
2022-12-19T23:11:48.828Z,1.49
2022-12-19T23:14:19.111Z,1.41
2022-12-19T23:16:48.902Z,1.38
2022-12-19T23:19:18.413Z,1.31
2022-12-19T23:21:47.025Z,1.29
2022-12-19T23:24:15.616Z,1.27
2022-12-19T23:26:44.202Z,1.25
2022-12-19T23:29:16.289Z,1.24
2022-12-19T23:31:47.012Z,1.21
2022-12-19T23:34:16.380Z,1.20
2022-12-19T23:37:10.374Z,1.16
2022-12-19T23:39:34.360Z,1.13
2022-12-19T23:42:03.000Z,1.06
2022-12-19T23:44:32.802Z,1.07
2022-12-19T23:47:03.840Z,1.07
2022-12-19T23:49:33.381Z,1.04
2022-12-19T23:52:01.980Z,0.98
2022-12-19T23:54:30.779Z,1.00
2022-12-19T23:56:59.315Z,0.94
2022-12-19T23:59:28.189Z,0.94
